sensor_id;sensor_type;location;lat;lon;timestamp;P1;durP1;ratioP1;P2;durP2;ratioP2
11125;SDS011;5617;54.046;10.676;2023-03-15T00:00:13;1.60;;;0.60;;
11125;SDS011;5617;54.046;10.676;2023-03-15T00:02:22;3.50;;;0.90;;
11125;SDS011;5617;54.046;10.676;2023-03-15T00:04:31;2.43;;;0.80;;
11125;SDS011;5617;54.046;10.676;2023-03-15T00:06:39;1.23;;;0.63;;
11125;SDS011;5617;54.046;10.676;2023-03-15T00:08:47;3.53;;;0.80;;
11125;SDS011;5617;54.046;10.676;2023-03-15T00:10:57;2.03;;;0.57;;
11125;SDS011;5617;54.046;10.676;2023-03-15T00:13:05;4.13;;;1.00;;
11125;SDS011;5617;54.046;10.676;2023-03-15T00:15:14;2.17;;;0.80;;
11125;SDS011;5617;54.046;10.676;2023-03-15T00:17:22;2.47;;;0.70;;
11125;SDS011;5617;54.046;10.676;2023-03-15T00:19:30;1.73;;;0.80;;
11125;SDS011;5617;54.046;10.676;2023-03-15T00:21:37;2.70;;;1.10;;
11125;SDS011;5617;54.046;10.676;2023-03-15T00:23:48;2.50;;;1.33;;
11125;SDS011;5617;54.046;10.676;2023-03-15T00:25:56;1.60;;;0.93;;
11125;SDS011;5617;54.046;10.676;2023-03-15T00:28:04;3.03;;;1.20;;
11125;SDS011;5617;54.046;10.676;2023-03-15T00:30:14;1.77;;;1.03;;
11125;SDS011;5617;54.046;10.676;2023-03-15T00:32:22;1.97;;;1.10;;
11125;SDS011;5617;54.046;10.676;2023-03-15T00:34:43;1.27;;;0.87;;
11125;SDS011;5617;54.046;10.676;2023-03-15T00:36:54;2.60;;;0.90;;
11125;SDS011;5617;54.046;10.676;2023-03-15T00:39:05;2.57;;;1.00;;
11125;SDS011;5617;54.046;10.676;2023-03-15T00:41:13;2.33;;;1.37;;
11125;SDS011;5617;54.046;10.676;2023-03-15T00:43:23;4.37;;;1.30;;
11125;SDS011;5617;54.046;10.676;2023-03-15T00:45:32;3.13;;;1.10;;
11125;SDS011;5617;54.046;10.676;2023-03-15T00:47:40;1.37;;;0.80;;
11125;SDS011;5617;54.046;10.676;2023-03-15T00:49:47;2.27;;;1.10;;
11125;SDS011;5617;54.046;10.676;2023-03-15T00:51:56;1.97;;;0.80;;
11125;SDS011;5617;54.046;10.676;2023-03-15T00:54:04;4.20;;;1.20;;
11125;SDS011;5617;54.046;10.676;2023-03-15T00:56:13;3.37;;;1.00;;
11125;SDS011;5617;54.046;10.676;2023-03-15T00:58:22;1.67;;;0.90;;
11125;SDS011;5617;54.046;10.676;2023-03-15T01:00:30;1.20;;;0.70;;
11125;SDS011;5617;54.046;10.676;2023-03-15T01:02:39;3.03;;;0.83;;
11125;SDS011;5617;54.046;10.676;2023-03-15T01:04:47;2.57;;;0.97;;
11125;SDS011;5617;54.046;10.676;2023-03-15T01:06:56;2.03;;;0.87;;
11125;SDS011;5617;54.046;10.676;2023-03-15T01:09:04;1.93;;;0.73;;
11125;SDS011;5617;54.046;10.676;2023-03-15T01:11:13;1.83;;;0.60;;
11125;SDS011;5617;54.046;10.676;2023-03-15T01:13:22;2.00;;;0.80;;
11125;SDS011;5617;54.046;10.676;2023-03-15T01:15:31;0.97;;;0.60;;
11125;SDS011;5617;54.046;10.676;2023-03-15T01:17:40;2.80;;;0.90;;
11125;SDS011;5617;54.046;10.676;2023-03-15T01:19:48;2.33;;;0.80;;
11125;SDS011;5617;54.046;10.676;2023-03-15T01:21:56;2.17;;;0.87;;
11125;SDS011;5617;54.046;10.676;2023-03-15T01:24:04;0.70;;;0.40;;
11125;SDS011;5617;54.046;10.676;2023-03-15T01:26:13;0.57;;;0.43;;
11125;SDS011;5617;54.046;10.676;2023-03-15T01:28:21;3.17;;;0.90;;
11125;SDS011;5617;54.046;10.676;2023-03-15T01:30:29;2.47;;;0.70;;
11125;SDS011;5617;54.046;10.676;2023-03-15T01:32:37;0.70;;;0.53;;
11125;SDS011;5617;54.046;10.676;2023-03-15T01:34:46;2.80;;;1.10;;
11125;SDS011;5617;54.046;10.676;2023-03-15T01:36:56;2.30;;;1.17;;
11125;SDS011;5617;54.046;10.676;2023-03-15T01:39:07;1.27;;;0.90;;
11125;SDS011;5617;54.046;10.676;2023-03-15T01:41:16;2.07;;;0.93;;
11125;SDS011;5617;54.046;10.676;2023-03-15T01:43:26;2.17;;;1.20;;
11125;SDS011;5617;54.046;10.676;2023-03-15T01:48:07;3.53;;;1.50;;
11125;SDS011;5617;54.046;10.676;2023-03-15T01:50:17;4.37;;;1.47;;
11125;SDS011;5617;54.046;10.676;2023-03-15T01:52:26;2.53;;;1.70;;
11125;SDS011;5617;54.046;10.676;2023-03-15T01:54:38;1.37;;;1.27;;
11125;SDS011;5617;54.046;10.676;2023-03-15T01:56:48;2.10;;;1.87;;
11125;SDS011;5617;54.046;10.676;2023-03-15T01:59:00;2.17;;;1.30;;
11125;SDS011;5617;54.046;10.676;2023-03-15T02:01:10;3.27;;;1.43;;
11125;SDS011;5617;54.046;10.676;2023-03-15T02:03:20;1.43;;;1.20;;
11125;SDS011;5617;54.046;10.676;2023-03-15T02:05:33;2.00;;;1.00;;
11125;SDS011;5617;54.046;10.676;2023-03-15T02:07:44;2.00;;;0.83;;
11125;SDS011;5617;54.046;10.676;2023-03-15T02:09:56;2.40;;;0.90;;
11125;SDS011;5617;54.046;10.676;2023-03-15T02:12:08;1.03;;;0.70;;
11125;SDS011;5617;54.046;10.676;2023-03-15T02:14:16;1.37;;;0.60;;
11125;SDS011;5617;54.046;10.676;2023-03-15T02:16:24;1.23;;;0.60;;
11125;SDS011;5617;54.046;10.676;2023-03-15T02:18:32;1.27;;;0.60;;
11125;SDS011;5617;54.046;10.676;2023-03-15T02:20:43;0.83;;;0.50;;
11125;SDS011;5617;54.046;10.676;2023-03-15T02:23:04;4.10;;;0.80;;
11125;SDS011;5617;54.046;10.676;2023-03-15T02:25:15;1.10;;;0.53;;
11125;SDS011;5617;54.046;10.676;2023-03-15T02:27:30;4.03;;;0.73;;
11125;SDS011;5617;54.046;10.676;2023-03-15T02:29:39;1.50;;;0.50;;
11125;SDS011;5617;54.046;10.676;2023-03-15T02:31:47;2.60;;;0.80;;
11125;SDS011;5617;54.046;10.676;2023-03-15T02:33:55;1.03;;;0.60;;
11125;SDS011;5617;54.046;10.676;2023-03-15T02:36:07;1.10;;;0.67;;
11125;SDS011;5617;54.046;10.676;2023-03-15T02:38:17;2.77;;;0.80;;
11125;SDS011;5617;54.046;10.676;2023-03-15T02:40:27;1.27;;;0.60;;
11125;SDS011;5617;54.046;10.676;2023-03-15T02:42:39;2.07;;;0.80;;
11125;SDS011;5617;54.046;10.676;2023-03-15T02:44:47;2.97;;;0.60;;
11125;SDS011;5617;54.046;10.676;2023-03-15T02:46:58;1.07;;;0.77;;
11125;SDS011;5617;54.046;10.676;2023-03-15T02:49:09;2.03;;;0.70;;
11125;SDS011;5617;54.046;10.676;2023-03-15T02:51:20;1.97;;;0.67;;
11125;SDS011;5617;54.046;10.676;2023-03-15T02:53:30;2.07;;;0.80;;
11125;SDS011;5617;54.046;10.676;2023-03-15T02:55:38;0.90;;;0.90;;
11125;SDS011;5617;54.046;10.676;2023-03-15T02:57:47;2.03;;;1.20;;
11125;SDS011;5617;54.046;10.676;2023-03-15T02:59:55;1.73;;;1.00;;
11125;SDS011;5617;54.046;10.676;2023-03-15T03:02:04;1.37;;;1.13;;
11125;SDS011;5617;54.046;10.676;2023-03-15T03:04:12;2.63;;;1.13;;
11125;SDS011;5617;54.046;10.676;2023-03-15T03:06:20;1.53;;;1.20;;
11125;SDS011;5617;54.046;10.676;2023-03-15T03:08:28;2.63;;;1.30;;
11125;SDS011;5617;54.046;10.676;2023-03-15T03:10:35;1.60;;;0.90;;
11125;SDS011;5617;54.046;10.676;2023-03-15T03:12:43;1.93;;;1.30;;
11125;SDS011;5617;54.046;10.676;2023-03-15T03:14:52;2.27;;;1.03;;
11125;SDS011;5617;54.046;10.676;2023-03-15T03:17:01;3.30;;;1.20;;
11125;SDS011;5617;54.046;10.676;2023-03-15T03:19:09;2.20;;;1.10;;
11125;SDS011;5617;54.046;10.676;2023-03-15T03:21:18;0.80;;;0.60;;
11125;SDS011;5617;54.046;10.676;2023-03-15T03:23:28;2.43;;;0.83;;
11125;SDS011;5617;54.046;10.676;2023-03-15T03:25:37;3.40;;;1.07;;
11125;SDS011;5617;54.046;10.676;2023-03-15T03:27:45;1.13;;;0.73;;
11125;SDS011;5617;54.046;10.676;2023-03-15T03:29:54;5.10;;;0.93;;
11125;SDS011;5617;54.046;10.676;2023-03-15T03:32:01;3.77;;;1.03;;
11125;SDS011;5617;54.046;10.676;2023-03-15T03:34:10;3.33;;;0.70;;
11125;SDS011;5617;54.046;10.676;2023-03-15T03:36:20;1.50;;;0.70;;
11125;SDS011;5617;54.046;10.676;2023-03-15T03:38:32;0.87;;;0.50;;
11125;SDS011;5617;54.046;10.676;2023-03-15T03:40:40;1.77;;;0.70;;
11125;SDS011;5617;54.046;10.676;2023-03-15T03:42:48;3.07;;;0.80;;
11125;SDS011;5617;54.046;10.676;2023-03-15T03:44:57;3.10;;;0.73;;
11125;SDS011;5617;54.046;10.676;2023-03-15T03:47:05;4.43;;;0.97;;
11125;SDS011;5617;54.046;10.676;2023-03-15T03:49:13;4.00;;;0.90;;
11125;SDS011;5617;54.046;10.676;2023-03-15T03:51:21;1.53;;;0.60;;
11125;SDS011;5617;54.046;10.676;2023-03-15T03:53:29;3.23;;;0.70;;
11125;SDS011;5617;54.046;10.676;2023-03-15T03:55:36;1.90;;;0.73;;
11125;SDS011;5617;54.046;10.676;2023-03-15T03:57:44;4.93;;;0.60;;
11125;SDS011;5617;54.046;10.676;2023-03-15T03:59:52;3.37;;;0.90;;
11125;SDS011;5617;54.046;10.676;2023-03-15T04:02:01;1.90;;;0.70;;
11125;SDS011;5617;54.046;10.676;2023-03-15T04:04:09;2.07;;;0.63;;
11125;SDS011;5617;54.046;10.676;2023-03-15T04:06:19;3.10;;;0.80;;
11125;SDS011;5617;54.046;10.676;2023-03-15T04:08:27;2.53;;;0.67;;
11125;SDS011;5617;54.046;10.676;2023-03-15T04:10:35;4.07;;;1.00;;
11125;SDS011;5617;54.046;10.676;2023-03-15T04:12:43;4.17;;;0.70;;
11125;SDS011;5617;54.046;10.676;2023-03-15T04:14:50;2.57;;;0.70;;
11125;SDS011;5617;54.046;10.676;2023-03-15T04:16:58;3.83;;;1.00;;
11125;SDS011;5617;54.046;10.676;2023-03-15T04:19:08;2.00;;;0.63;;
11125;SDS011;5617;54.046;10.676;2023-03-15T04:21:17;2.13;;;0.80;;
11125;SDS011;5617;54.046;10.676;2023-03-15T04:23:28;2.17;;;0.87;;
11125;SDS011;5617;54.046;10.676;2023-03-15T04:25:35;1.73;;;0.70;;
11125;SDS011;5617;54.046;10.676;2023-03-15T04:27:43;2.80;;;0.80;;
11125;SDS011;5617;54.046;10.676;2023-03-15T04:29:51;3.70;;;0.90;;
11125;SDS011;5617;54.046;10.676;2023-03-15T04:31:58;3.93;;;0.73;;
11125;SDS011;5617;54.046;10.676;2023-03-15T04:34:08;3.00;;;0.80;;
11125;SDS011;5617;54.046;10.676;2023-03-15T04:36:15;2.17;;;0.80;;
11125;SDS011;5617;54.046;10.676;2023-03-15T04:38:24;1.30;;;0.70;;
11125;SDS011;5617;54.046;10.676;2023-03-15T04:40:33;1.57;;;0.70;;
11125;SDS011;5617;54.046;10.676;2023-03-15T04:42:41;1.20;;;0.70;;
11125;SDS011;5617;54.046;10.676;2023-03-15T04:44:49;1.60;;;0.80;;
11125;SDS011;5617;54.046;10.676;2023-03-15T04:46:56;3.40;;;0.77;;
11125;SDS011;5617;54.046;10.676;2023-03-15T04:49:05;3.23;;;0.90;;
11125;SDS011;5617;54.046;10.676;2023-03-15T04:51:13;0.97;;;0.70;;
11125;SDS011;5617;54.046;10.676;2023-03-15T04:53:21;1.80;;;0.80;;
11125;SDS011;5617;54.046;10.676;2023-03-15T04:55:29;3.03;;;0.67;;
11125;SDS011;5617;54.046;10.676;2023-03-15T04:57:36;2.40;;;0.77;;
11125;SDS011;5617;54.046;10.676;2023-03-15T04:59:44;2.87;;;0.50;;
11125;SDS011;5617;54.046;10.676;2023-03-15T05:01:52;2.73;;;0.63;;
11125;SDS011;5617;54.046;10.676;2023-03-15T05:03:59;2.13;;;0.70;;
11125;SDS011;5617;54.046;10.676;2023-03-15T05:06:08;2.27;;;0.80;;
11125;SDS011;5617;54.046;10.676;2023-03-15T05:08:16;2.80;;;0.60;;
11125;SDS011;5617;54.046;10.676;2023-03-15T05:10:24;2.40;;;0.77;;
11125;SDS011;5617;54.046;10.676;2023-03-15T05:12:34;4.47;;;0.77;;
11125;SDS011;5617;54.046;10.676;2023-03-15T05:14:42;1.73;;;0.80;;
11125;SDS011;5617;54.046;10.676;2023-03-15T05:16:50;2.00;;;0.90;;
11125;SDS011;5617;54.046;10.676;2023-03-15T05:19:00;2.73;;;1.00;;
11125;SDS011;5617;54.046;10.676;2023-03-15T05:21:09;2.10;;;1.00;;
11125;SDS011;5617;54.046;10.676;2023-03-15T05:23:18;3.03;;;0.90;;
11125;SDS011;5617;54.046;10.676;2023-03-15T05:25:27;3.17;;;1.13;;
11125;SDS011;5617;54.046;10.676;2023-03-15T05:27:35;1.60;;;0.90;;
11125;SDS011;5617;54.046;10.676;2023-03-15T05:29:43;2.27;;;1.20;;
11125;SDS011;5617;54.046;10.676;2023-03-15T05:31:52;2.43;;;1.00;;
11125;SDS011;5617;54.046;10.676;2023-03-15T05:33:59;8.83;;;3.03;;
11125;SDS011;5617;54.046;10.676;2023-03-15T05:36:10;7.70;;;3.97;;
11125;SDS011;5617;54.046;10.676;2023-03-15T05:38:19;7.30;;;4.03;;
11125;SDS011;5617;54.046;10.676;2023-03-15T05:40:32;7.20;;;2.87;;
11125;SDS011;5617;54.046;10.676;2023-03-15T05:42:39;8.90;;;3.13;;
11125;SDS011;5617;54.046;10.676;2023-03-15T05:44:47;13.03;;;5.07;;
11125;SDS011;5617;54.046;10.676;2023-03-15T05:46:55;32.40;;;6.07;;
11125;SDS011;5617;54.046;10.676;2023-03-15T05:49:02;12.17;;;4.27;;
11125;SDS011;5617;54.046;10.676;2023-03-15T05:51:11;5.67;;;2.80;;
11125;SDS011;5617;54.046;10.676;2023-03-15T05:53:19;4.87;;;3.03;;
11125;SDS011;5617;54.046;10.676;2023-03-15T05:55:26;5.23;;;3.13;;
11125;SDS011;5617;54.046;10.676;2023-03-15T05:57:34;5.30;;;3.67;;
11125;SDS011;5617;54.046;10.676;2023-03-15T05:59:42;5.07;;;2.87;;
11125;SDS011;5617;54.046;10.676;2023-03-15T06:01:49;5.33;;;3.10;;
11125;SDS011;5617;54.046;10.676;2023-03-15T06:03:57;5.40;;;2.73;;
11125;SDS011;5617;54.046;10.676;2023-03-15T06:06:05;4.57;;;3.50;;
11125;SDS011;5617;54.046;10.676;2023-03-15T06:08:14;5.37;;;3.03;;
11125;SDS011;5617;54.046;10.676;2023-03-15T06:10:25;3.50;;;2.50;;
11125;SDS011;5617;54.046;10.676;2023-03-15T06:12:32;6.07;;;2.97;;
11125;SDS011;5617;54.046;10.676;2023-03-15T06:14:40;3.87;;;2.00;;
11125;SDS011;5617;54.046;10.676;2023-03-15T06:16:48;3.57;;;2.30;;
11125;SDS011;5617;54.046;10.676;2023-03-15T06:18:55;3.77;;;2.03;;
11125;SDS011;5617;54.046;10.676;2023-03-15T06:21:03;3.97;;;2.53;;
11125;SDS011;5617;54.046;10.676;2023-03-15T06:23:11;3.97;;;1.80;;
11125;SDS011;5617;54.046;10.676;2023-03-15T06:25:20;3.47;;;1.60;;
11125;SDS011;5617;54.046;10.676;2023-03-15T06:27:33;2.90;;;1.70;;
11125;SDS011;5617;54.046;10.676;2023-03-15T06:29:43;4.47;;;1.70;;
11125;SDS011;5617;54.046;10.676;2023-03-15T06:31:50;4.20;;;1.70;;
11125;SDS011;5617;54.046;10.676;2023-03-15T06:33:58;4.30;;;2.00;;
11125;SDS011;5617;54.046;10.676;2023-03-15T06:36:06;2.47;;;1.97;;
11125;SDS011;5617;54.046;10.676;2023-03-15T06:38:15;6.97;;;2.20;;
11125;SDS011;5617;54.046;10.676;2023-03-15T06:40:24;4.17;;;2.10;;
11125;SDS011;5617;54.046;10.676;2023-03-15T06:42:31;4.60;;;2.63;;
11125;SDS011;5617;54.046;10.676;2023-03-15T06:44:40;3.23;;;2.10;;
11125;SDS011;5617;54.046;10.676;2023-03-15T06:46:48;2.03;;;1.40;;
11125;SDS011;5617;54.046;10.676;2023-03-15T06:48:56;2.70;;;1.57;;
11125;SDS011;5617;54.046;10.676;2023-03-15T06:51:06;3.07;;;2.17;;
11125;SDS011;5617;54.046;10.676;2023-03-15T06:53:14;4.40;;;2.80;;
11125;SDS011;5617;54.046;10.676;2023-03-15T06:55:26;3.63;;;2.70;;
11125;SDS011;5617;54.046;10.676;2023-03-15T06:57:34;4.07;;;2.70;;
11125;SDS011;5617;54.046;10.676;2023-03-15T06:59:41;3.77;;;2.50;;
11125;SDS011;5617;54.046;10.676;2023-03-15T07:01:49;3.97;;;2.70;;
11125;SDS011;5617;54.046;10.676;2023-03-15T07:03:59;4.77;;;2.53;;
11125;SDS011;5617;54.046;10.676;2023-03-15T07:06:08;3.90;;;2.43;;
11125;SDS011;5617;54.046;10.676;2023-03-15T07:08:19;3.07;;;2.10;;
11125;SDS011;5617;54.046;10.676;2023-03-15T07:10:29;5.60;;;2.43;;
11125;SDS011;5617;54.046;10.676;2023-03-15T07:12:38;4.47;;;2.77;;
11125;SDS011;5617;54.046;10.676;2023-03-15T07:14:46;4.20;;;2.40;;
11125;SDS011;5617;54.046;10.676;2023-03-15T07:16:54;2.00;;;1.77;;
11125;SDS011;5617;54.046;10.676;2023-03-15T07:19:02;3.40;;;2.67;;
11125;SDS011;5617;54.046;10.676;2023-03-15T07:21:10;2.83;;;1.80;;
11125;SDS011;5617;54.046;10.676;2023-03-15T07:23:18;3.83;;;2.00;;
11125;SDS011;5617;54.046;10.676;2023-03-15T07:25:25;2.43;;;2.10;;
11125;SDS011;5617;54.046;10.676;2023-03-15T07:27:35;3.07;;;2.10;;
11125;SDS011;5617;54.046;10.676;2023-03-15T07:29:42;2.83;;;2.13;;
11125;SDS011;5617;54.046;10.676;2023-03-15T07:31:50;4.40;;;2.47;;
11125;SDS011;5617;54.046;10.676;2023-03-15T07:33:58;5.47;;;2.40;;
11125;SDS011;5617;54.046;10.676;2023-03-15T07:36:06;4.87;;;2.30;;
11125;SDS011;5617;54.046;10.676;2023-03-15T07:38:14;4.30;;;2.27;;
11125;SDS011;5617;54.046;10.676;2023-03-15T07:40:22;3.90;;;1.93;;
11125;SDS011;5617;54.046;10.676;2023-03-15T07:42:31;4.67;;;2.10;;
11125;SDS011;5617;54.046;10.676;2023-03-15T07:44:59;3.07;;;2.50;;
11125;SDS011;5617;54.046;10.676;2023-03-15T07:47:07;2.57;;;2.20;;
11125;SDS011;5617;54.046;10.676;2023-03-15T07:49:15;4.00;;;2.37;;
11125;SDS011;5617;54.046;10.676;2023-03-15T07:51:23;3.83;;;2.37;;
11125;SDS011;5617;54.046;10.676;2023-03-15T07:53:30;3.87;;;2.37;;
11125;SDS011;5617;54.046;10.676;2023-03-15T07:55:40;2.70;;;1.70;;
11125;SDS011;5617;54.046;10.676;2023-03-15T07:57:48;4.73;;;2.00;;
11125;SDS011;5617;54.046;10.676;2023-03-15T07:59:56;4.47;;;2.40;;
11125;SDS011;5617;54.046;10.676;2023-03-15T08:02:05;4.53;;;2.60;;
11125;SDS011;5617;54.046;10.676;2023-03-15T08:04:13;4.33;;;2.20;;
11125;SDS011;5617;54.046;10.676;2023-03-15T08:06:21;2.93;;;2.20;;
11125;SDS011;5617;54.046;10.676;2023-03-15T08:08:29;2.43;;;1.50;;
11125;SDS011;5617;54.046;10.676;2023-03-15T08:10:37;2.77;;;2.00;;
11125;SDS011;5617;54.046;10.676;2023-03-15T08:12:44;4.20;;;1.97;;
11125;SDS011;5617;54.046;10.676;2023-03-15T08:14:52;1.90;;;1.47;;
11125;SDS011;5617;54.046;10.676;2023-03-15T08:17:00;3.57;;;2.00;;
11125;SDS011;5617;54.046;10.676;2023-03-15T08:19:09;1.90;;;1.60;;
11125;SDS011;5617;54.046;10.676;2023-03-15T08:21:16;4.37;;;2.17;;
11125;SDS011;5617;54.046;10.676;2023-03-15T08:23:24;2.00;;;1.40;;
11125;SDS011;5617;54.046;10.676;2023-03-15T08:25:32;3.80;;;2.57;;
11125;SDS011;5617;54.046;10.676;2023-03-15T08:27:40;1.90;;;1.40;;
11125;SDS011;5617;54.046;10.676;2023-03-15T08:29:48;2.30;;;1.33;;
11125;SDS011;5617;54.046;10.676;2023-03-15T08:31:56;2.90;;;2.40;;
11125;SDS011;5617;54.046;10.676;2023-03-15T08:34:04;3.90;;;1.90;;
11125;SDS011;5617;54.046;10.676;2023-03-15T08:36:14;2.40;;;2.20;;
11125;SDS011;5617;54.046;10.676;2023-03-15T08:38:21;5.23;;;2.40;;
11125;SDS011;5617;54.046;10.676;2023-03-15T08:40:29;1.07;;;0.97;;
11125;SDS011;5617;54.046;10.676;2023-03-15T08:42:37;3.03;;;1.37;;
11125;SDS011;5617;54.046;10.676;2023-03-15T08:44:50;1.90;;;1.43;;
11125;SDS011;5617;54.046;10.676;2023-03-15T08:46:57;4.77;;;2.20;;
11125;SDS011;5617;54.046;10.676;2023-03-15T08:49:05;1.70;;;1.60;;
11125;SDS011;5617;54.046;10.676;2023-03-15T08:51:14;3.13;;;2.00;;
11125;SDS011;5617;54.046;10.676;2023-03-15T08:53:22;2.30;;;1.70;;
11125;SDS011;5617;54.046;10.676;2023-03-15T08:55:29;3.27;;;1.47;;
11125;SDS011;5617;54.046;10.676;2023-03-15T08:57:37;4.30;;;1.60;;
11125;SDS011;5617;54.046;10.676;2023-03-15T08:59:45;2.67;;;1.63;;
11125;SDS011;5617;54.046;10.676;2023-03-15T09:01:56;2.50;;;1.30;;
11125;SDS011;5617;54.046;10.676;2023-03-15T09:04:07;3.10;;;1.30;;
11125;SDS011;5617;54.046;10.676;2023-03-15T09:06:16;1.73;;;1.17;;
11125;SDS011;5617;54.046;10.676;2023-03-15T09:08:24;2.63;;;0.97;;
11125;SDS011;5617;54.046;10.676;2023-03-15T09:10:31;1.10;;;0.80;;
11125;SDS011;5617;54.046;10.676;2023-03-15T09:12:40;2.77;;;0.87;;
11125;SDS011;5617;54.046;10.676;2023-03-15T09:14:47;2.90;;;0.80;;
11125;SDS011;5617;54.046;10.676;2023-03-15T09:16:55;0.70;;;0.70;;
11125;SDS011;5617;54.046;10.676;2023-03-15T09:19:03;2.87;;;0.80;;
11125;SDS011;5617;54.046;10.676;2023-03-15T09:21:11;3.93;;;1.10;;
11125;SDS011;5617;54.046;10.676;2023-03-15T09:23:20;3.33;;;1.03;;
11125;SDS011;5617;54.046;10.676;2023-03-15T09:25:28;1.93;;;0.97;;
11125;SDS011;5617;54.046;10.676;2023-03-15T09:27:38;2.03;;;0.87;;
11125;SDS011;5617;54.046;10.676;2023-03-15T09:29:46;4.53;;;1.03;;
11125;SDS011;5617;54.046;10.676;2023-03-15T09:31:54;2.67;;;0.70;;
11125;SDS011;5617;54.046;10.676;2023-03-15T09:34:03;2.43;;;0.80;;
11125;SDS011;5617;54.046;10.676;2023-03-15T09:36:11;3.47;;;1.33;;
11125;SDS011;5617;54.046;10.676;2023-03-15T09:38:20;1.33;;;0.80;;
11125;SDS011;5617;54.046;10.676;2023-03-15T09:40:29;4.10;;;1.23;;
11125;SDS011;5617;54.046;10.676;2023-03-15T09:42:41;3.30;;;1.10;;
11125;SDS011;5617;54.046;10.676;2023-03-15T09:45:06;1.87;;;0.87;;
11125;SDS011;5617;54.046;10.676;2023-03-15T09:47:27;4.13;;;0.90;;
11125;SDS011;5617;54.046;10.676;2023-03-15T09:49:44;2.07;;;0.90;;
11125;SDS011;5617;54.046;10.676;2023-03-15T09:51:57;2.87;;;1.00;;
11125;SDS011;5617;54.046;10.676;2023-03-15T09:54:11;1.03;;;0.80;;
11125;SDS011;5617;54.046;10.676;2023-03-15T09:56:23;2.70;;;1.10;;
11125;SDS011;5617;54.046;10.676;2023-03-15T09:58:33;2.40;;;1.33;;
11125;SDS011;5617;54.046;10.676;2023-03-15T10:00:43;0.97;;;0.90;;
11125;SDS011;5617;54.046;10.676;2023-03-15T10:02:56;2.67;;;1.10;;
11125;SDS011;5617;54.046;10.676;2023-03-15T10:05:07;2.83;;;1.07;;
11125;SDS011;5617;54.046;10.676;2023-03-15T10:07:21;3.13;;;1.30;;
11125;SDS011;5617;54.046;10.676;2023-03-15T10:09:31;3.77;;;0.97;;
11125;SDS011;5617;54.046;10.676;2023-03-15T10:11:41;1.53;;;0.93;;
11125;SDS011;5617;54.046;10.676;2023-03-15T10:13:59;2.20;;;0.90;;
11125;SDS011;5617;54.046;10.676;2023-03-15T10:16:22;2.47;;;1.13;;
11125;SDS011;5617;54.046;10.676;2023-03-15T10:18:39;3.43;;;1.23;;
11125;SDS011;5617;54.046;10.676;2023-03-15T10:20:57;1.73;;;0.77;;
11125;SDS011;5617;54.046;10.676;2023-03-15T10:23:11;1.80;;;0.70;;
11125;SDS011;5617;54.046;10.676;2023-03-15T10:25:26;4.03;;;1.30;;
11125;SDS011;5617;54.046;10.676;2023-03-15T10:27:36;2.47;;;1.00;;
11125;SDS011;5617;54.046;10.676;2023-03-15T10:29:48;2.17;;;1.30;;
11125;SDS011;5617;54.046;10.676;2023-03-15T10:31:58;2.23;;;1.20;;
11125;SDS011;5617;54.046;10.676;2023-03-15T10:34:07;1.50;;;0.97;;
11125;SDS011;5617;54.046;10.676;2023-03-15T10:36:17;2.73;;;1.10;;
11125;SDS011;5617;54.046;10.676;2023-03-15T10:38:26;2.10;;;1.17;;
11125;SDS011;5617;54.046;10.676;2023-03-15T10:40:39;2.90;;;1.20;;
11125;SDS011;5617;54.046;10.676;2023-03-15T10:42:49;8.37;;;1.40;;
11125;SDS011;5617;54.046;10.676;2023-03-15T10:44:58;2.20;;;1.17;;
11125;SDS011;5617;54.046;10.676;2023-03-15T10:47:18;2.50;;;1.03;;
11125;SDS011;5617;54.046;10.676;2023-03-15T10:49:33;4.97;;;1.30;;
11125;SDS011;5617;54.046;10.676;2023-03-15T10:51:42;2.50;;;1.10;;
11125;SDS011;5617;54.046;10.676;2023-03-15T10:53:52;2.77;;;0.90;;
11125;SDS011;5617;54.046;10.676;2023-03-15T10:56:05;4.30;;;1.30;;
11125;SDS011;5617;54.046;10.676;2023-03-15T10:58:21;3.07;;;0.93;;
11125;SDS011;5617;54.046;10.676;2023-03-15T11:00:34;3.93;;;0.97;;
11125;SDS011;5617;54.046;10.676;2023-03-15T11:02:49;2.50;;;1.30;;
11125;SDS011;5617;54.046;10.676;2023-03-15T11:04:58;2.47;;;1.10;;
11125;SDS011;5617;54.046;10.676;2023-03-15T11:07:08;3.00;;;1.00;;
11125;SDS011;5617;54.046;10.676;2023-03-15T11:09:19;3.10;;;1.20;;
11125;SDS011;5617;54.046;10.676;2023-03-15T11:11:40;3.30;;;0.87;;
11125;SDS011;5617;54.046;10.676;2023-03-15T11:13:59;1.33;;;0.70;;
11125;SDS011;5617;54.046;10.676;2023-03-15T11:16:13;0.83;;;0.50;;
11125;SDS011;5617;54.046;10.676;2023-03-15T11:18:27;1.73;;;1.07;;
11125;SDS011;5617;54.046;10.676;2023-03-15T11:20:38;0.77;;;0.60;;
11125;SDS011;5617;54.046;10.676;2023-03-15T11:22:46;1.37;;;0.80;;
11125;SDS011;5617;54.046;10.676;2023-03-15T11:24:54;4.87;;;0.97;;
11125;SDS011;5617;54.046;10.676;2023-03-15T11:27:08;3.27;;;0.97;;
11125;SDS011;5617;54.046;10.676;2023-03-15T11:29:20;2.87;;;0.80;;
11125;SDS011;5617;54.046;10.676;2023-03-15T11:31:31;5.27;;;1.03;;
11125;SDS011;5617;54.046;10.676;2023-03-15T11:33:44;1.10;;;0.40;;
11125;SDS011;5617;54.046;10.676;2023-03-15T11:35:57;1.77;;;0.80;;
11125;SDS011;5617;54.046;10.676;2023-03-15T11:38:09;1.60;;;0.70;;
11125;SDS011;5617;54.046;10.676;2023-03-15T11:40:21;0.63;;;0.43;;
11125;SDS011;5617;54.046;10.676;2023-03-15T11:42:34;3.00;;;0.93;;
11125;SDS011;5617;54.046;10.676;2023-03-15T11:44:46;0.97;;;0.83;;
11125;SDS011;5617;54.046;10.676;2023-03-15T11:46:56;2.63;;;0.97;;
11125;SDS011;5617;54.046;10.676;2023-03-15T11:49:11;3.43;;;1.10;;
11125;SDS011;5617;54.046;10.676;2023-03-15T11:51:22;0.67;;;0.60;;
11125;SDS011;5617;54.046;10.676;2023-03-15T11:53:31;1.03;;;0.60;;
11125;SDS011;5617;54.046;10.676;2023-03-15T11:55:46;2.80;;;1.30;;
11125;SDS011;5617;54.046;10.676;2023-03-15T11:57:56;2.30;;;1.10;;
11125;SDS011;5617;54.046;10.676;2023-03-15T12:05:49;2.80;;;1.47;;
11125;SDS011;5617;54.046;10.676;2023-03-15T12:07:58;3.93;;;0.90;;
11125;SDS011;5617;54.046;10.676;2023-03-15T12:10:30;2.57;;;0.90;;
11125;SDS011;5617;54.046;10.676;2023-03-15T12:12:44;3.57;;;0.97;;
11125;SDS011;5617;54.046;10.676;2023-03-15T12:15:02;1.80;;;0.57;;
11125;SDS011;5617;54.046;10.676;2023-03-15T12:19:56;0.80;;;0.50;;
11125;SDS011;5617;54.046;10.676;2023-03-15T12:22:11;1.23;;;0.67;;
11125;SDS011;5617;54.046;10.676;2023-03-15T12:24:21;1.73;;;0.60;;
11125;SDS011;5617;54.046;10.676;2023-03-15T12:26:39;2.13;;;0.97;;
11125;SDS011;5617;54.046;10.676;2023-03-15T12:28:50;0.67;;;0.60;;
11125;SDS011;5617;54.046;10.676;2023-03-15T12:31:10;2.00;;;0.70;;
11125;SDS011;5617;54.046;10.676;2023-03-15T12:33:20;1.47;;;0.73;;
11125;SDS011;5617;54.046;10.676;2023-03-15T12:35:31;3.23;;;0.70;;
11125;SDS011;5617;54.046;10.676;2023-03-15T12:37:44;2.83;;;0.50;;
11125;SDS011;5617;54.046;10.676;2023-03-15T12:39:58;2.80;;;0.90;;
11125;SDS011;5617;54.046;10.676;2023-03-15T12:42:11;3.27;;;1.20;;
11125;SDS011;5617;54.046;10.676;2023-03-15T12:44:38;1.00;;;0.63;;
11125;SDS011;5617;54.046;10.676;2023-03-15T12:46:56;3.83;;;1.00;;
11125;SDS011;5617;54.046;10.676;2023-03-15T12:49:05;2.47;;;1.10;;
11125;SDS011;5617;54.046;10.676;2023-03-15T12:51:40;3.73;;;1.27;;
11125;SDS011;5617;54.046;10.676;2023-03-15T12:53:49;2.27;;;0.83;;
11125;SDS011;5617;54.046;10.676;2023-03-15T12:56:11;1.80;;;0.80;;
11125;SDS011;5617;54.046;10.676;2023-03-15T12:58:34;1.50;;;1.00;;
11125;SDS011;5617;54.046;10.676;2023-03-15T13:00:43;1.70;;;0.90;;
11125;SDS011;5617;54.046;10.676;2023-03-15T13:02:58;3.50;;;1.03;;
11125;SDS011;5617;54.046;10.676;2023-03-15T13:05:16;4.50;;;3.20;;
11125;SDS011;5617;54.046;10.676;2023-03-15T13:07:29;2.00;;;0.60;;
11125;SDS011;5617;54.046;10.676;2023-03-15T13:09:57;1.27;;;0.60;;
11125;SDS011;5617;54.046;10.676;2023-03-15T13:12:23;1.73;;;0.60;;
11125;SDS011;5617;54.046;10.676;2023-03-15T13:14:42;2.20;;;0.70;;